sensor_id;sensor_type;location;lat;lon;timestamp;P1;durP1;ratioP1;P2;durP2;ratioP2
24711;SDS011;12818;58.184;13.964;2022-07-06T07:01:37;4.38;;;0.77;;
24711;SDS011;12818;58.184;13.964;2022-07-06T07:04:04;3.53;;;1.08;;
24711;SDS011;12818;58.184;13.964;2022-07-06T07:06:33;3.95;;;1.00;;
24711;SDS011;12818;58.184;13.964;2022-07-06T07:09:00;2.95;;;1.08;;
24711;SDS011;12818;58.184;13.964;2022-07-06T07:11:28;3.25;;;0.90;;
24711;SDS011;12818;58.184;13.964;2022-07-06T07:13:55;3.53;;;0.90;;
24711;SDS011;12818;58.184;13.964;2022-07-06T07:16:22;2.78;;;0.75;;
24711;SDS011;12818;58.184;13.964;2022-07-06T07:18:53;4.35;;;0.70;;
24711;SDS011;12818;58.184;13.964;2022-07-06T07:21:20;4.07;;;1.27;;
24711;SDS011;12818;58.184;13.964;2022-07-06T07:23:48;1.88;;;1.00;;
24711;SDS011;12818;58.184;13.964;2022-07-06T07:26:16;1.63;;;0.82;;
24711;SDS011;12818;58.184;13.964;2022-07-06T07:28:44;2.75;;;0.90;;
24711;SDS011;12818;58.184;13.964;2022-07-06T07:31:12;2.83;;;0.82;;
24711;SDS011;12818;58.184;13.964;2022-07-06T07:33:40;4.38;;;1.17;;
24711;SDS011;12818;58.184;13.964;2022-07-06T07:36:07;2.20;;;1.15;;
24711;SDS011;12818;58.184;13.964;2022-07-06T07:38:35;1.65;;;0.90;;
24711;SDS011;12818;58.184;13.964;2022-07-06T07:41:02;1.67;;;0.68;;
24711;SDS011;12818;58.184;13.964;2022-07-06T07:43:30;2.70;;;1.10;;
24711;SDS011;12818;58.184;13.964;2022-07-06T07:45:57;2.90;;;0.80;;
24711;SDS011;12818;58.184;13.964;2022-07-06T07:48:24;1.35;;;0.70;;
24711;SDS011;12818;58.184;13.964;2022-07-06T07:50:52;2.13;;;0.80;;
24711;SDS011;12818;58.184;13.964;2022-07-06T07:53:20;3.50;;;0.73;;
24711;SDS011;12818;58.184;13.964;2022-07-06T07:55:47;2.30;;;0.70;;
24711;SDS011;12818;58.184;13.964;2022-07-06T07:58:14;2.72;;;1.02;;
24711;SDS011;12818;58.184;13.964;2022-07-06T08:00:42;1.52;;;0.90;;
24711;SDS011;12818;58.184;13.964;2022-07-06T08:03:09;2.78;;;0.70;;
24711;SDS011;12818;58.184;13.964;2022-07-06T08:05:36;1.10;;;0.55;;
24711;SDS011;12818;58.184;13.964;2022-07-06T08:08:04;1.17;;;0.73;;
24711;SDS011;12818;58.184;13.964;2022-07-06T08:10:31;2.83;;;0.60;;
24711;SDS011;12818;58.184;13.964;2022-07-06T08:13:19;3.67;;;0.60;;
24711;SDS011;12818;58.184;13.964;2022-07-06T08:15:46;2.90;;;0.80;;
24711;SDS011;12818;58.184;13.964;2022-07-06T08:18:13;0.75;;;0.57;;
24711;SDS011;12818;58.184;13.964;2022-07-06T08:20:41;1.92;;;0.57;;
24711;SDS011;12818;58.184;13.964;2022-07-06T08:23:28;1.35;;;0.57;;
24711;SDS011;12818;58.184;13.964;2022-07-06T08:25:56;1.05;;;0.50;;
24711;SDS011;12818;58.184;13.964;2022-07-06T08:28:23;1.05;;;0.68;;
24711;SDS011;12818;58.184;13.964;2022-07-06T08:30:51;1.70;;;0.55;;
24711;SDS011;12818;58.184;13.964;2022-07-06T08:33:20;1.42;;;0.50;;
24711;SDS011;12818;58.184;13.964;2022-07-06T08:35:48;3.88;;;0.63;;
24711;SDS011;12818;58.184;13.964;2022-07-06T08:38:15;2.78;;;0.55;;
24711;SDS011;12818;58.184;13.964;2022-07-06T08:40:43;1.05;;;0.63;;
24711;SDS011;12818;58.184;13.964;2022-07-06T08:43:11;1.05;;;0.45;;
24711;SDS011;12818;58.184;13.964;2022-07-06T08:45:41;0.70;;;0.50;;
24711;SDS011;12818;58.184;13.964;2022-07-06T08:48:09;1.00;;;0.70;;
24711;SDS011;12818;58.184;13.964;2022-07-06T08:50:37;0.80;;;0.30;;
24711;SDS011;12818;58.184;13.964;2022-07-06T08:53:05;0.47;;;0.47;;
24711;SDS011;12818;58.184;13.964;2022-07-06T08:55:32;2.90;;;0.60;;
24711;SDS011;12818;58.184;13.964;2022-07-06T08:58:00;0.75;;;0.45;;
24711;SDS011;12818;58.184;13.964;2022-07-06T09:00:27;3.30;;;0.65;;
24711;SDS011;12818;58.184;13.964;2022-07-06T09:02:54;0.50;;;0.50;;
24711;SDS011;12818;58.184;13.964;2022-07-06T09:05:23;0.45;;;0.30;;
24711;SDS011;12818;58.184;13.964;2022-07-06T09:07:51;0.30;;;0.30;;
24711;SDS011;12818;58.184;13.964;2022-07-06T09:10:25;1.75;;;0.30;;
24711;SDS011;12818;58.184;13.964;2022-07-06T09:12:52;2.90;;;0.65;;
24711;SDS011;12818;58.184;13.964;2022-07-06T09:15:23;0.70;;;0.68;;
24711;SDS011;12818;58.184;13.964;2022-07-06T09:17:50;0.43;;;0.38;;
24711;SDS011;12818;58.184;13.964;2022-07-06T09:20:23;0.90;;;0.40;;
24711;SDS011;12818;58.184;13.964;2022-07-06T09:22:50;0.68;;;0.47;;
24711;SDS011;12818;58.184;13.964;2022-07-06T09:25:20;0.70;;;0.38;;
24711;SDS011;12818;58.184;13.964;2022-07-06T09:27:48;0.10;;;0.10;;
24711;SDS011;12818;58.184;13.964;2022-07-06T09:32:48;0.20;;;0.20;;
24711;SDS011;12818;58.184;13.964;2022-07-06T09:35:20;2.55;;;0.30;;
24711;SDS011;12818;58.184;13.964;2022-07-06T09:37:53;0.97;;;0.40;;
24711;SDS011;12818;58.184;13.964;2022-07-06T09:40:26;1.20;;;0.20;;
24711;SDS011;12818;58.184;13.964;2022-07-06T09:43:09;0.10;;;0.10;;
24711;SDS011;12818;58.184;13.964;2022-07-06T09:45:37;2.05;;;0.30;;
24711;SDS011;12818;58.184;13.964;2022-07-06T09:48:06;2.90;;;0.77;;
24711;SDS011;12818;58.184;13.964;2022-07-06T09:50:43;0.73;;;0.50;;
24711;SDS011;12818;58.184;13.964;2022-07-06T09:53:11;2.95;;;0.63;;
24711;SDS011;12818;58.184;13.964;2022-07-06T09:55:42;1.17;;;0.30;;
24711;SDS011;12818;58.184;13.964;2022-07-06T09:58:10;0.73;;;0.30;;
24711;SDS011;12818;58.184;13.964;2022-07-06T10:00:37;0.82;;;0.30;;
24711;SDS011;12818;58.184;13.964;2022-07-06T10:03:06;0.70;;;0.45;;
24711;SDS011;12818;58.184;13.964;2022-07-06T10:05:38;3.30;;;0.40;;
24711;SDS011;12818;58.184;13.964;2022-07-06T10:08:06;0.57;;;0.33;;
24711;SDS011;12818;58.184;13.964;2022-07-06T10:10:36;2.08;;;0.45;;
24711;SDS011;12818;58.184;13.964;2022-07-06T10:13:04;1.60;;;0.60;;
24711;SDS011;12818;58.184;13.964;2022-07-06T10:15:35;0.60;;;0.60;;
24711;SDS011;12818;58.184;13.964;2022-07-06T10:18:11;0.80;;;0.30;;
24711;SDS011;12818;58.184;13.964;2022-07-06T10:20:39;1.20;;;0.40;;
24711;SDS011;12818;58.184;13.964;2022-07-06T10:23:08;1.20;;;0.70;;
24711;SDS011;12818;58.184;13.964;2022-07-06T10:25:36;0.63;;;0.35;;
24711;SDS011;12818;58.184;13.964;2022-07-06T10:28:04;0.55;;;0.35;;
24711;SDS011;12818;58.184;13.964;2022-07-06T10:30:40;2.50;;;0.50;;
24711;SDS011;12818;58.184;13.964;2022-07-06T10:33:08;0.32;;;0.32;;
24711;SDS011;12818;58.184;13.964;2022-07-06T10:35:39;0.35;;;0.20;;
24711;SDS011;12818;58.184;13.964;2022-07-06T10:38:07;1.90;;;0.40;;
24711;SDS011;12818;58.184;13.964;2022-07-06T10:40:38;1.25;;;0.30;;
24711;SDS011;12818;58.184;13.964;2022-07-06T10:43:31;1.35;;;0.20;;
24711;SDS011;12818;58.184;13.964;2022-07-06T10:45:58;0.20;;;0.20;;
24711;SDS011;12818;58.184;13.964;2022-07-06T10:48:31;0.30;;;0.10;;
24711;SDS011;12818;58.184;13.964;2022-07-06T10:51:01;0.10;;;0.10;;
24711;SDS011;12818;58.184;13.964;2022-07-06T10:53:31;0.75;;;0.20;;
24711;SDS011;12818;58.184;13.964;2022-07-06T10:56:08;0.20;;;0.20;;
24711;SDS011;12818;58.184;13.964;2022-07-06T10:58:40;0.30;;;0.30;;
24711;SDS011;12818;58.184;13.964;2022-07-06T11:01:08;0.20;;;0.20;;
24711;SDS011;12818;58.184;13.964;2022-07-06T11:03:46;0.55;;;0.28;;
24711;SDS011;12818;58.184;13.964;2022-07-06T11:16:18;1.42;;;0.10;;
24711;SDS011;12818;58.184;13.964;2022-07-06T11:18:47;0.15;;;0.15;;
24711;SDS011;12818;58.184;13.964;2022-07-06T11:23:42;1.75;;;0.13;;
24711;SDS011;12818;58.184;13.964;2022-07-06T11:26:10;0.40;;;0.10;;
24711;SDS011;12818;58.184;13.964;2022-07-06T11:28:37;1.65;;;0.10;;
24711;SDS011;12818;58.184;13.964;2022-07-06T11:31:05;1.20;;;0.35;;
24711;SDS011;12818;58.184;13.964;2022-07-06T11:33:32;0.00;;;0.00;;
24711;SDS011;12818;58.184;13.964;2022-07-06T11:38:40;0.10;;;0.10;;
24711;SDS011;12818;58.184;13.964;2022-07-06T11:41:07;0.73;;;0.22;;
24711;SDS011;12818;58.184;13.964;2022-07-06T11:43:35;0.50;;;0.13;;
24711;SDS011;12818;58.184;13.964;2022-07-06T11:46:03;0.60;;;0.10;;
24711;SDS011;12818;58.184;13.964;2022-07-06T11:48:31;0.50;;;0.28;;
24711;SDS011;12818;58.184;13.964;2022-07-06T11:50:59;0.38;;;0.10;;
24711;SDS011;12818;58.184;13.964;2022-07-06T11:53:27;1.55;;;0.30;;
24711;SDS011;12818;58.184;13.964;2022-07-06T11:55:54;0.63;;;0.17;;
24711;SDS011;12818;58.184;13.964;2022-07-06T11:58:22;0.10;;;0.10;;
24711;SDS011;12818;58.184;13.964;2022-07-06T12:01:06;0.45;;;0.10;;
24711;SDS011;12818;58.184;13.964;2022-07-06T12:03:34;0.15;;;0.08;;
24711;SDS011;12818;58.184;13.964;2022-07-06T12:06:02;0.60;;;0.10;;
24711;SDS011;12818;58.184;13.964;2022-07-06T12:08:29;0.47;;;0.08;;
24711;SDS011;12818;58.184;13.964;2022-07-06T12:10:57;0.95;;;0.10;;
24711;SDS011;12818;58.184;13.964;2022-07-06T12:13:24;0.82;;;0.10;;
24711;SDS011;12818;58.184;13.964;2022-07-06T12:15:52;1.05;;;0.20;;
24711;SDS011;12818;58.184;13.964;2022-07-06T12:18:19;0.55;;;0.28;;
24711;SDS011;12818;58.184;13.964;2022-07-06T12:20:47;0.38;;;0.20;;
24711;SDS011;12818;58.184;13.964;2022-07-06T12:23:14;0.30;;;0.10;;
24711;SDS011;12818;58.184;13.964;2022-07-06T12:25:41;0.25;;;0.10;;
24711;SDS011;12818;58.184;13.964;2022-07-06T12:28:21;0.63;;;0.05;;
24711;SDS011;12818;58.184;13.964;2022-07-06T12:30:48;0.30;;;0.03;;
24711;SDS011;12818;58.184;13.964;2022-07-06T12:33:16;2.17;;;0.17;;
24711;SDS011;12818;58.184;13.964;2022-07-06T12:35:46;2.38;;;0.30;;
24711;SDS011;12818;58.184;13.964;2022-07-06T12:38:20;1.27;;;0.20;;
24711;SDS011;12818;58.184;13.964;2022-07-06T12:40:48;0.28;;;0.20;;
24711;SDS011;12818;58.184;13.964;2022-07-06T12:43:35;2.42;;;0.35;;
24711;SDS011;12818;58.184;13.964;2022-07-06T12:46:45;2.10;;;0.30;;
24711;SDS011;12818;58.184;13.964;2022-07-06T12:48:54;0.35;;;0.10;;
24711;SDS011;12818;58.184;13.964;2022-07-06T12:51:21;2.15;;;0.10;;
24711;SDS011;12818;58.184;13.964;2022-07-06T12:53:49;0.63;;;0.13;;
24711;SDS011;12818;58.184;13.964;2022-07-06T12:56:16;0.10;;;0.10;;
24711;SDS011;12818;58.184;13.964;2022-07-06T12:58:59;1.40;;;0.20;;
24711;SDS011;12818;58.184;13.964;2022-07-06T13:01:27;1.45;;;0.20;;
24711;SDS011;12818;58.184;13.964;2022-07-06T13:03:56;1.88;;;0.35;;
24711;SDS011;12818;58.184;13.964;2022-07-06T13:06:30;2.55;;;0.30;;
24711;SDS011;12818;58.184;13.964;2022-07-06T13:08:58;0.75;;;0.25;;
24711;SDS011;12818;58.184;13.964;2022-07-06T13:11:26;0.28;;;0.20;;
24711;SDS011;12818;58.184;13.964;2022-07-06T13:13:56;2.50;;;0.30;;
24711;SDS011;12818;58.184;13.964;2022-07-06T13:16:23;0.98;;;0.30;;
24711;SDS011;12818;58.184;13.964;2022-07-06T13:18:56;5.88;;;0.70;;
24711;SDS011;12818;58.184;13.964;2022-07-06T13:21:24;5.03;;;0.63;;
24711;SDS011;12818;58.184;13.964;2022-07-06T13:23:51;0.10;;;0.10;;
24711;SDS011;12818;58.184;13.964;2022-07-06T13:26:18;0.63;;;0.30;;
24711;SDS011;12818;58.184;13.964;2022-07-06T13:28:45;0.88;;;0.43;;
24711;SDS011;12818;58.184;13.964;2022-07-06T13:31:13;1.27;;;0.38;;
24711;SDS011;12818;58.184;13.964;2022-07-06T13:33:40;2.28;;;0.38;;
24711;SDS011;12818;58.184;13.964;2022-07-06T13:36:07;1.05;;;0.30;;
24711;SDS011;12818;58.184;13.964;2022-07-06T13:38:34;0.28;;;0.20;;
24711;SDS011;12818;58.184;13.964;2022-07-06T13:41:01;0.47;;;0.28;;
24711;SDS011;12818;58.184;13.964;2022-07-06T13:43:29;1.08;;;0.30;;
24711;SDS011;12818;58.184;13.964;2022-07-06T13:46:06;1.40;;;0.20;;
24711;SDS011;12818;58.184;13.964;2022-07-06T13:48:34;0.25;;;0.10;;
24711;SDS011;12818;58.184;13.964;2022-07-06T13:51:01;2.05;;;0.38;;
24711;SDS011;12818;58.184;13.964;2022-07-06T13:53:28;0.52;;;0.20;;
24711;SDS011;12818;58.184;13.964;2022-07-06T13:55:57;0.95;;;0.20;;
24711;SDS011;12818;58.184;13.964;2022-07-06T13:58:24;1.13;;;0.20;;
24711;SDS011;12818;58.184;13.964;2022-07-06T14:00:52;0.82;;;0.22;;
24711;SDS011;12818;58.184;13.964;2022-07-06T14:03:19;0.77;;;0.30;;
24711;SDS011;12818;58.184;13.964;2022-07-06T14:05:46;0.77;;;0.20;;
24711;SDS011;12818;58.184;13.964;2022-07-06T14:08:14;0.40;;;0.20;;
24711;SDS011;12818;58.184;13.964;2022-07-06T14:10:41;1.08;;;0.30;;
24711;SDS011;12818;58.184;13.964;2022-07-06T14:13:08;1.10;;;0.40;;
24711;SDS011;12818;58.184;13.964;2022-07-06T14:15:39;0.98;;;0.25;;
24711;SDS011;12818;58.184;13.964;2022-07-06T14:18:06;1.73;;;0.20;;
24711;SDS011;12818;58.184;13.964;2022-07-06T14:20:33;2.47;;;0.60;;
24711;SDS011;12818;58.184;13.964;2022-07-06T14:23:00;1.40;;;0.40;;
24711;SDS011;12818;58.184;13.964;2022-07-06T14:25:28;1.45;;;0.32;;
24711;SDS011;12818;58.184;13.964;2022-07-06T14:27:55;1.02;;;0.55;;
24711;SDS011;12818;58.184;13.964;2022-07-06T14:30:22;2.30;;;0.63;;
24711;SDS011;12818;58.184;13.964;2022-07-06T14:32:50;1.77;;;0.20;;
24711;SDS011;12818;58.184;13.964;2022-07-06T14:35:17;2.30;;;0.30;;
24711;SDS011;12818;58.184;13.964;2022-07-06T14:37:44;0.70;;;0.20;;
24711;SDS011;12818;58.184;13.964;2022-07-06T14:40:12;1.35;;;0.20;;
24711;SDS011;12818;58.184;13.964;2022-07-06T14:42:39;6.38;;;2.35;;
24711;SDS011;12818;58.184;13.964;2022-07-06T14:45:06;1.30;;;0.40;;
24711;SDS011;12818;58.184;13.964;2022-07-06T14:47:34;2.25;;;0.45;;
24711;SDS011;12818;58.184;13.964;2022-07-06T14:50:02;1.90;;;0.30;;
24711;SDS011;12818;58.184;13.964;2022-07-06T14:52:30;1.23;;;0.43;;
24711;SDS011;12818;58.184;13.964;2022-07-06T14:54:57;2.42;;;0.30;;
24711;SDS011;12818;58.184;13.964;2022-07-06T14:57:25;2.05;;;0.50;;
24711;SDS011;12818;58.184;13.964;2022-07-06T14:59:53;1.20;;;0.32;;
24711;SDS011;12818;58.184;13.964;2022-07-06T15:02:20;1.30;;;0.45;;
24711;SDS011;12818;58.184;13.964;2022-07-06T15:04:47;2.45;;;0.55;;
24711;SDS011;12818;58.184;13.964;2022-07-06T15:07:14;1.52;;;0.60;;
24711;SDS011;12818;58.184;13.964;2022-07-06T15:09:42;2.28;;;0.35;;
24711;SDS011;12818;58.184;13.964;2022-07-06T15:12:10;0.85;;;0.35;;
24711;SDS011;12818;58.184;13.964;2022-07-06T15:14:37;2.75;;;0.30;;
24711;SDS011;12818;58.184;13.964;2022-07-06T15:17:04;2.65;;;0.32;;
24711;SDS011;12818;58.184;13.964;2022-07-06T15:19:32;0.25;;;0.25;;
24711;SDS011;12818;58.184;13.964;2022-07-06T15:21:59;1.10;;;0.30;;
24711;SDS011;12818;58.184;13.964;2022-07-06T15:24:27;1.00;;;0.75;;
24711;SDS011;12818;58.184;13.964;2022-07-06T15:26:54;2.92;;;0.30;;
24711;SDS011;12818;58.184;13.964;2022-07-06T15:29:21;2.33;;;0.57;;
24711;SDS011;12818;58.184;13.964;2022-07-06T15:31:49;0.85;;;0.30;;
24711;SDS011;12818;58.184;13.964;2022-07-06T15:34:16;2.85;;;0.30;;
24711;SDS011;12818;58.184;13.964;2022-07-06T15:36:44;0.90;;;0.38;;
24711;SDS011;12818;58.184;13.964;2022-07-06T15:39:11;1.75;;;0.30;;
24711;SDS011;12818;58.184;13.964;2022-07-06T15:41:38;2.15;;;0.30;;
24711;SDS011;12818;58.184;13.964;2022-07-06T15:44:06;0.63;;;0.10;;
24711;SDS011;12818;58.184;13.964;2022-07-06T15:46:33;1.75;;;0.40;;
24711;SDS011;12818;58.184;13.964;2022-07-06T15:49:01;0.95;;;0.30;;
24711;SDS011;12818;58.184;13.964;2022-07-06T15:51:29;2.63;;;0.50;;
24711;SDS011;12818;58.184;13.964;2022-07-06T15:53:57;0.73;;;0.30;;
24711;SDS011;12818;58.184;13.964;2022-07-06T15:56:24;0.65;;;0.30;;
24711;SDS011;12818;58.184;13.964;2022-07-06T15:58:51;3.70;;;0.73;;
24711;SDS011;12818;58.184;13.964;2022-07-06T16:01:19;2.22;;;0.38;;
24711;SDS011;12818;58.184;13.964;2022-07-06T16:03:48;0.32;;;0.20;;
24711;SDS011;12818;58.184;13.964;2022-07-06T16:06:15;1.70;;;0.30;;
24711;SDS011;12818;58.184;13.964;2022-07-06T16:08:43;1.40;;;0.20;;
24711;SDS011;12818;58.184;13.964;2022-07-06T16:11:15;1.60;;;0.13;;
24711;SDS011;12818;58.184;13.964;2022-07-06T16:13:43;1.35;;;0.30;;
24711;SDS011;12818;58.184;13.964;2022-07-06T16:16:21;0.73;;;0.40;;
24711;SDS011;12818;58.184;13.964;2022-07-06T16:18:49;1.33;;;0.20;;
24711;SDS011;12818;58.184;13.964;2022-07-06T16:21:16;0.60;;;0.30;;
24711;SDS011;12818;58.184;13.964;2022-07-06T16:23:43;0.70;;;0.47;;
24711;SDS011;12818;58.184;13.964;2022-07-06T16:26:11;1.08;;;0.20;;
24711;SDS011;12818;58.184;13.964;2022-07-06T16:28:38;4.60;;;0.47;;
24711;SDS011;12818;58.184;13.964;2022-07-06T16:31:05;2.45;;;0.40;;
24711;SDS011;12818;58.184;13.964;2022-07-06T16:33:33;3.08;;;0.17;;
24711;SDS011;12818;58.184;13.964;2022-07-06T16:36:02;2.17;;;0.17;;
24711;SDS011;12818;58.184;13.964;2022-07-06T16:38:31;1.10;;;0.30;;
24711;SDS011;12818;58.184;13.964;2022-07-06T16:40:58;1.25;;;0.38;;
24711;SDS011;12818;58.184;13.964;2022-07-06T16:43:25;7.22;;;0.50;;
24711;SDS011;12818;58.184;13.964;2022-07-06T16:45:53;2.70;;;0.30;;
24711;SDS011;12818;58.184;13.964;2022-07-06T16:48:21;1.67;;;0.30;;
24711;SDS011;12818;58.184;13.964;2022-07-06T16:50:48;0.63;;;0.20;;
24711;SDS011;12818;58.184;13.964;2022-07-06T16:53:15;1.05;;;0.65;;
24711;SDS011;12818;58.184;13.964;2022-07-06T16:55:45;0.82;;;0.60;;
24711;SDS011;12818;58.184;13.964;2022-07-06T16:58:13;2.13;;;0.50;;
24711;SDS011;12818;58.184;13.964;2022-07-06T17:00:40;1.35;;;0.45;;
24711;SDS011;12818;58.184;13.964;2022-07-06T17:03:07;4.05;;;0.50;;
24711;SDS011;12818;58.184;13.964;2022-07-06T17:05:35;2.92;;;0.77;;
24711;SDS011;12818;58.184;13.964;2022-07-06T17:08:03;1.27;;;0.50;;
24711;SDS011;12818;58.184;13.964;2022-07-06T17:10:30;3.08;;;0.80;;
24711;SDS011;12818;58.184;13.964;2022-07-06T17:12:57;2.65;;;0.47;;
24711;SDS011;12818;58.184;13.964;2022-07-06T17:15:24;3.75;;;0.70;;
24711;SDS011;12818;58.184;13.964;2022-07-06T17:17:52;2.75;;;0.60;;
24711;SDS011;12818;58.184;13.964;2022-07-06T17:20:19;3.13;;;0.70;;
24711;SDS011;12818;58.184;13.964;2022-07-06T17:22:46;2.80;;;0.80;;
24711;SDS011;12818;58.184;13.964;2022-07-06T17:25:13;3.88;;;0.73;;
24711;SDS011;12818;58.184;13.964;2022-07-06T17:27:40;2.53;;;0.90;;
24711;SDS011;12818;58.184;13.964;2022-07-06T17:30:08;5.05;;;1.08;;
24711;SDS011;12818;58.184;13.964;2022-07-06T17:32:35;4.45;;;0.90;;
24711;SDS011;12818;58.184;13.964;2022-07-06T17:35:02;3.30;;;0.88;;
24711;SDS011;12818;58.184;13.964;2022-07-06T17:37:30;3.70;;;1.00;;
24711;SDS011;12818;58.184;13.964;2022-07-06T17:39:57;3.17;;;0.82;;
24711;SDS011;12818;58.184;13.964;2022-07-06T17:42:24;4.97;;;1.33;;
24711;SDS011;12818;58.184;13.964;2022-07-06T17:44:52;3.33;;;0.70;;
24711;SDS011;12818;58.184;13.964;2022-07-06T17:47:21;8.88;;;0.95;;
24711;SDS011;12818;58.184;13.964;2022-07-06T17:49:48;4.05;;;0.88;;
24711;SDS011;12818;58.184;13.964;2022-07-06T17:52:16;4.85;;;0.70;;
24711;SDS011;12818;58.184;13.964;2022-07-06T17:54:44;4.25;;;0.70;;
24711;SDS011;12818;58.184;13.964;2022-07-06T17:57:18;4.97;;;0.95;;
24711;SDS011;12818;58.184;13.964;2022-07-06T17:59:45;4.20;;;0.70;;
24711;SDS011;12818;58.184;13.964;2022-07-06T18:02:13;6.75;;;0.88;;
24711;SDS011;12818;58.184;13.964;2022-07-06T18:04:40;4.97;;;1.05;;
24711;SDS011;12818;58.184;13.964;2022-07-06T18:07:08;3.97;;;0.80;;
24711;SDS011;12818;58.184;13.964;2022-07-06T18:09:35;2.53;;;0.88;;
24711;SDS011;12818;58.184;13.964;2022-07-06T18:12:02;2.67;;;0.68;;
24711;SDS011;12818;58.184;13.964;2022-07-06T18:14:30;4.93;;;0.93;;
24711;SDS011;12818;58.184;13.964;2022-07-06T18:16:57;2.28;;;0.60;;
24711;SDS011;12818;58.184;13.964;2022-07-06T18:19:25;2.47;;;0.77;;
24711;SDS011;12818;58.184;13.964;2022-07-06T18:21:52;0.80;;;0.30;;
24711;SDS011;12818;58.184;13.964;2022-07-06T18:24:18;2.65;;;0.98;;
24711;SDS011;12818;58.184;13.964;2022-07-06T18:26:45;2.67;;;0.60;;
24711;SDS011;12818;58.184;13.964;2022-07-06T18:29:13;2.22;;;0.50;;
24711;SDS011;12818;58.184;13.964;2022-07-06T18:31:40;3.53;;;0.80;;
24711;SDS011;12818;58.184;13.964;2022-07-06T18:34:07;1.25;;;0.45;;
24711;SDS011;12818;58.184;13.964;2022-07-06T18:36:35;3.10;;;0.70;;
24711;SDS011;12818;58.184;13.964;2022-07-06T18:39:02;4.57;;;1.02;;
24711;SDS011;12818;58.184;13.964;2022-07-06T18:41:30;0.63;;;0.47;;
24711;SDS011;12818;58.184;13.964;2022-07-06T18:43:57;1.15;;;0.55;;
24711;SDS011;12818;58.184;13.964;2022-07-06T18:46:24;3.15;;;0.60;;
24711;SDS011;12818;58.184;13.964;2022-07-06T18:48:52;2.85;;;0.73;;
24711;SDS011;12818;58.184;13.964;2022-07-06T18:51:19;2.70;;;0.75;;
24711;SDS011;12818;58.184;13.964;2022-07-06T18:53:48;4.72;;;1.13;;
24711;SDS011;12818;58.184;13.964;2022-07-06T18:56:21;4.55;;;1.00;;
24711;SDS011;12818;58.184;13.964;2022-07-06T18:58:49;3.72;;;0.88;;
24711;SDS011;12818;58.184;13.964;2022-07-06T19:01:17;5.38;;;1.27;;
24711;SDS011;12818;58.184;13.964;2022-07-06T19:03:44;5.63;;;0.88;;
24711;SDS011;12818;58.184;13.964;2022-07-06T19:06:15;2.45;;;0.90;;
24711;SDS011;12818;58.184;13.964;2022-07-06T19:08:43;1.85;;;0.80;;
24711;SDS011;12818;58.184;13.964;2022-07-06T19:11:10;4.50;;;0.85;;
24711;SDS011;12818;58.184;13.964;2022-07-06T19:13:45;4.88;;;0.70;;
24711;SDS011;12818;58.184;13.964;2022-07-06T19:16:12;2.58;;;0.90;;
24711;SDS011;12818;58.184;13.964;2022-07-06T19:18:39;7.35;;;1.20;;
24711;SDS011;12818;58.184;13.964;2022-07-06T19:21:07;6.25;;;0.93;;
24711;SDS011;12818;58.184;13.964;2022-07-06T19:23:34;2.95;;;0.73;;
24711;SDS011;12818;58.184;13.964;2022-07-06T19:26:02;7.80;;;1.38;;
24711;SDS011;12818;58.184;13.964;2022-07-06T19:28:29;4.60;;;1.13;;
24711;SDS011;12818;58.184;13.964;2022-07-06T19:30:57;6.93;;;0.95;;
24711;SDS011;12818;58.184;13.964;2022-07-06T19:33:24;3.67;;;1.15;;
24711;SDS011;12818;58.184;13.964;2022-07-06T19:35:55;1.73;;;0.60;;
24711;SDS011;12818;58.184;13.964;2022-07-06T19:38:22;4.47;;;0.60;;
24711;SDS011;12818;58.184;13.964;2022-07-06T19:40:50;2.17;;;0.82;;
24711;SDS011;12818;58.184;13.964;2022-07-06T19:43:17;4.28;;;1.10;;
24711;SDS011;12818;58.184;13.964;2022-07-06T19:45:47;4.50;;;1.13;;
24711;SDS011;12818;58.184;13.964;2022-07-06T19:48:14;4.80;;;1.20;;
24711;SDS011;12818;58.184;13.964;2022-07-06T19:50:41;4.85;;;0.88;;
24711;SDS011;12818;58.184;13.964;2022-07-06T19:53:09;3.92;;;0.95;;
24711;SDS011;12818;58.184;13.964;2022-07-06T19:55:37;3.78;;;0.88;;
24711;SDS011;12818;58.184;13.964;2022-07-06T19:58:04;3.72;;;1.10;;
24711;SDS011;12818;58.184;13.964;2022-07-06T20:00:31;5.18;;;1.05;;
24711;SDS011;12818;58.184;13.964;2022-07-06T20:02:59;5.13;;;1.00;;
24711;SDS011;12818;58.184;13.964;2022-07-06T20:05:26;3.88;;;0.70;;
24711;SDS011;12818;58.184;13.964;2022-07-06T20:07:54;8.18;;;1.00;;
24711;SDS011;12818;58.184;13.964;2022-07-06T20:10:21;2.05;;;0.70;;
24711;SDS011;12818;58.184;13.964;2022-07-06T20:12:48;3.63;;;0.90;;
24711;SDS011;12818;58.184;13.964;2022-07-06T20:15:16;4.60;;;0.90;;
24711;SDS011;12818;58.184;13.964;2022-07-06T20:17:43;2.95;;;0.77;;
24711;SDS011;12818;58.184;13.964;2022-07-06T20:20:11;2.90;;;0.93;;
24711;SDS011;12818;58.184;13.964;2022-07-06T20:22:38;4.90;;;1.25;;
24711;SDS011;12818;58.184;13.964;2022-07-06T20:25:05;5.43;;;0.88;;
24711;SDS011;12818;58.184;13.964;2022-07-06T20:27:33;6.43;;;1.08;;
24711;SDS011;12818;58.184;13.964;2022-07-06T20:30:02;3.10;;;0.88;;
24711;SDS011;12818;58.184;13.964;2022-07-06T20:32:30;5.03;;;0.98;;
24711;SDS011;12818;58.184;13.964;2022-07-06T20:34:57;5.20;;;1.15;;
24711;SDS011;12818;58.184;13.964;2022-07-06T20:37:24;5.00;;;1.00;;
24711;SDS011;12818;58.184;13.964;2022-07-06T20:39:52;3.95;;;1.02;;
24711;SDS011;12818;58.184;13.964;2022-07-06T20:42:19;6.72;;;1.33;;
24711;SDS011;12818;58.184;13.964;2022-07-06T20:44:46;7.15;;;1.00;;
24711;SDS011;12818;58.184;13.964;2022-07-06T20:47:14;3.65;;;0.85;;
24711;SDS011;12818;58.184;13.964;2022-07-06T20:49:42;1.58;;;0.70;;
24711;SDS011;12818;58.184;13.964;2022-07-06T20:52:09;6.97;;;0.95;;
24711;SDS011;12818;58.184;13.964;2022-07-06T20:54:37;4.55;;;1.02;;
24711;SDS011;12818;58.184;13.964;2022-07-06T20:57:08;6.00;;;0.88;;
24711;SDS011;12818;58.184;13.964;2022-07-06T20:59:35;1.85;;;0.90;;
24711;SDS011;12818;58.184;13.964;2022-07-06T21:02:05;4.65;;;0.90;;
24711;SDS011;12818;58.184;13.964;2022-07-06T21:04:33;3.53;;;1.05;;
24711;SDS011;12818;58.184;13.964;2022-07-06T21:07:00;2.67;;;0.80;;
24711;SDS011;12818;58.184;13.964;2022-07-06T21:09:28;5.75;;;0.80;;
24711;SDS011;12818;58.184;13.964;2022-07-06T21:11:54;5.00;;;1.10;;
24711;SDS011;12818;58.184;13.964;2022-07-06T21:14:21;3.30;;;1.08;;
24711;SDS011;12818;58.184;13.964;2022-07-06T21:16:48;7.25;;;0.93;;
24711;SDS011;12818;58.184;13.964;2022-07-06T21:19:16;4.13;;;0.93;;
24711;SDS011;12818;58.184;13.964;2022-07-06T21:21:43;3.80;;;1.00;;
24711;SDS011;12818;58.184;13.964;2022-07-06T21:24:10;2.92;;;1.08;;
24711;SDS011;12818;58.184;13.964;2022-07-06T21:26:37;5.13;;;0.98;;
24711;SDS011;12818;58.184;13.964;2022-07-06T21:29:08;5.40;;;0.93;;
24711;SDS011;12818;58.184;13.964;2022-07-06T21:31:35;3.90;;;1.00;;
24711;SDS011;12818;58.184;13.964;2022-07-06T21:34:03;3.25;;;0.93;;
24711;SDS011;12818;58.184;13.964;2022-07-06T21:36:30;3.58;;;0.93;;
24711;SDS011;12818;58.184;13.964;2022-07-06T21:38:57;2.00;;;1.00;;
24711;SDS011;12818;58.184;13.964;2022-07-06T21:41:24;5.03;;;1.17;;
24711;SDS011;12818;58.184;13.964;2022-07-06T21:43:52;4.82;;;0.93;;
24711;SDS011;12818;58.184;13.964;2022-07-06T21:46:19;3.35;;;0.80;;
24711;SDS011;12818;58.184;13.964;2022-07-06T21:48:47;4.32;;;0.90;;
24711;SDS011;12818;58.184;13.964;2022-07-06T21:51:14;5.50;;;1.00;;
24711;SDS011;12818;58.184;13.964;2022-07-06T21:53:41;8.43;;;1.23;;
24711;SDS011;12818;58.184;13.964;2022-07-06T21:56:09;7.07;;;1.20;;
24711;SDS011;12818;58.184;13.964;2022-07-06T21:58:36;6.90;;;0.98;;